Bethalto, Illinois
Current Conditions -  °F | °C
As of 3:51 PM on Friday 31 Oct 2014 (Local Time) from KSTL Reporting Station
Few Clouds Few Clouds  
Wind Chill: 39°   Ceiling: Unl
Heat Index: 47°   Visibility: 10mi
Dew Point: 21°   Wind: 24mph
Humidity: 36%   Direction: 330°NNW
Pressure: 30.29"   Gusts: 29mph
Location:  38.91°N, 90.04°W
Report Text: KSTL 312051Z 33021G25KT 10SM FEW055 08/M06 A3029 RMK AO2 PK WND 33029/2009 SLP260 T00831061 55002
Loading
Personal Weather Stations






























Interactive Weather Map New forecast layout! Learn more

10-Day Weather Forecast

Advertisements
Track Severe Weather on mobile